sensor_id;sensor_type;location;lat;lon;timestamp;P1;durP1;ratioP1;P2;durP2;ratioP2
66628;SDS011;53532;53.084;6.352;2023-02-28T00:02:20;19.57;;;12.70;;
66628;SDS011;53532;53.084;6.352;2023-02-28T00:04:46;18.23;;;11.30;;
66628;SDS011;53532;53.084;6.352;2023-02-28T00:07:19;18.85;;;11.90;;
66628;SDS011;53532;53.084;6.352;2023-02-28T00:09:45;20.70;;;11.60;;
66628;SDS011;53532;53.084;6.352;2023-02-28T00:12:11;19.07;;;11.47;;
66628;SDS011;53532;53.084;6.352;2023-02-28T00:14:38;17.53;;;11.63;;
66628;SDS011;53532;53.084;6.352;2023-02-28T00:17:05;19.07;;;11.70;;
66628;SDS011;53532;53.084;6.352;2023-02-28T00:19:31;18.80;;;11.60;;
66628;SDS011;53532;53.084;6.352;2023-02-28T00:21:57;16.37;;;11.40;;
66628;SDS011;53532;53.084;6.352;2023-02-28T00:24:24;16.37;;;11.00;;
66628;SDS011;53532;53.084;6.352;2023-02-28T00:26:50;14.13;;;10.80;;
66628;SDS011;53532;53.084;6.352;2023-02-28T00:29:16;17.73;;;11.23;;
66628;SDS011;53532;53.084;6.352;2023-02-28T00:31:42;18.50;;;11.17;;
66628;SDS011;53532;53.084;6.352;2023-02-28T00:34:10;17.70;;;12.27;;
66628;SDS011;53532;53.084;6.352;2023-02-28T00:36:36;22.10;;;11.80;;
66628;SDS011;53532;53.084;6.352;2023-02-28T00:39:03;21.47;;;12.07;;
66628;SDS011;53532;53.084;6.352;2023-02-28T00:41:29;18.13;;;11.10;;
66628;SDS011;53532;53.084;6.352;2023-02-28T00:43:55;20.37;;;11.23;;
66628;SDS011;53532;53.084;6.352;2023-02-28T00:46:21;15.37;;;10.97;;
66628;SDS011;53532;53.084;6.352;2023-02-28T00:48:47;15.60;;;10.77;;
66628;SDS011;53532;53.084;6.352;2023-02-28T00:51:15;16.33;;;11.13;;
66628;SDS011;53532;53.084;6.352;2023-02-28T00:53:41;21.53;;;11.00;;
66628;SDS011;53532;53.084;6.352;2023-02-28T00:56:08;20.57;;;11.73;;
66628;SDS011;53532;53.084;6.352;2023-02-28T00:58:34;22.70;;;12.40;;
66628;SDS011;53532;53.084;6.352;2023-02-28T01:01:01;16.50;;;11.27;;
66628;SDS011;53532;53.084;6.352;2023-02-28T01:03:27;17.23;;;11.37;;
66628;SDS011;53532;53.084;6.352;2023-02-28T01:05:53;16.53;;;10.97;;
66628;SDS011;53532;53.084;6.352;2023-02-28T01:08:21;17.63;;;11.33;;
66628;SDS011;53532;53.084;6.352;2023-02-28T01:10:47;17.37;;;11.90;;
66628;SDS011;53532;53.084;6.352;2023-02-28T01:13:13;17.60;;;12.10;;
66628;SDS011;53532;53.084;6.352;2023-02-28T01:15:40;19.67;;;11.00;;
66628;SDS011;53532;53.084;6.352;2023-02-28T01:18:07;17.67;;;12.10;;
66628;SDS011;53532;53.084;6.352;2023-02-28T01:20:35;19.20;;;11.40;;
66628;SDS011;53532;53.084;6.352;2023-02-28T01:23:02;15.33;;;10.40;;
66628;SDS011;53532;53.084;6.352;2023-02-28T01:25:29;16.97;;;10.93;;
66628;SDS011;53532;53.084;6.352;2023-02-28T01:27:56;17.30;;;10.57;;
66628;SDS011;53532;53.084;6.352;2023-02-28T01:30:22;18.53;;;11.27;;
66628;SDS011;53532;53.084;6.352;2023-02-28T01:32:48;17.00;;;11.20;;
66628;SDS011;53532;53.084;6.352;2023-02-28T01:35:16;17.00;;;10.93;;
66628;SDS011;53532;53.084;6.352;2023-02-28T01:37:42;16.07;;;10.13;;
66628;SDS011;53532;53.084;6.352;2023-02-28T01:40:08;16.67;;;10.73;;
66628;SDS011;53532;53.084;6.352;2023-02-28T01:42:36;16.20;;;10.83;;
66628;SDS011;53532;53.084;6.352;2023-02-28T01:45:04;16.40;;;10.47;;
66628;SDS011;53532;53.084;6.352;2023-02-28T01:47:32;16.30;;;11.40;;
66628;SDS011;53532;53.084;6.352;2023-02-28T01:50:00;15.87;;;10.80;;
66628;SDS011;53532;53.084;6.352;2023-02-28T01:52:27;19.37;;;11.23;;
66628;SDS011;53532;53.084;6.352;2023-02-28T01:54:55;19.90;;;11.43;;
66628;SDS011;53532;53.084;6.352;2023-02-28T01:57:23;17.53;;;11.87;;
66628;SDS011;53532;53.084;6.352;2023-02-28T01:59:52;16.53;;;11.70;;
66628;SDS011;53532;53.084;6.352;2023-02-28T02:02:20;16.73;;;11.70;;
66628;SDS011;53532;53.084;6.352;2023-02-28T02:04:50;18.57;;;11.47;;
66628;SDS011;53532;53.084;6.352;2023-02-28T02:07:17;18.10;;;11.43;;
66628;SDS011;53532;53.084;6.352;2023-02-28T02:09:43;19.80;;;11.23;;
66628;SDS011;53532;53.084;6.352;2023-02-28T02:12:11;19.07;;;11.77;;
66628;SDS011;53532;53.084;6.352;2023-02-28T02:14:43;18.47;;;11.40;;
66628;SDS011;53532;53.084;6.352;2023-02-28T02:17:16;17.23;;;11.70;;
66628;SDS011;53532;53.084;6.352;2023-02-28T02:22:46;16.20;;;11.03;;
66628;SDS011;53532;53.084;6.352;2023-02-28T02:25:19;17.93;;;12.17;;
66628;SDS011;53532;53.084;6.352;2023-02-28T02:27:57;17.83;;;13.27;;
66628;SDS011;53532;53.084;6.352;2023-02-28T02:30:51;16.57;;;12.77;;
66628;SDS011;53532;53.084;6.352;2023-02-28T02:33:34;18.35;;;12.98;;
66628;SDS011;53532;53.084;6.352;2023-02-28T02:36:09;19.90;;;14.33;;
66628;SDS011;53532;53.084;6.352;2023-02-28T02:38:38;19.23;;;13.90;;
66628;SDS011;53532;53.084;6.352;2023-02-28T02:41:08;20.73;;;14.03;;
66628;SDS011;53532;53.084;6.352;2023-02-28T02:43:39;23.95;;;14.32;;
66628;SDS011;53532;53.084;6.352;2023-02-28T02:46:08;21.67;;;13.50;;
66628;SDS011;53532;53.084;6.352;2023-02-28T02:48:36;18.03;;;13.00;;
66628;SDS011;53532;53.084;6.352;2023-02-28T02:51:05;19.47;;;12.97;;
66628;SDS011;53532;53.084;6.352;2023-02-28T02:53:40;19.67;;;13.50;;
66628;SDS011;53532;53.084;6.352;2023-02-28T02:56:07;19.63;;;12.80;;
66628;SDS011;53532;53.084;6.352;2023-02-28T02:58:38;20.43;;;13.67;;
66628;SDS011;53532;53.084;6.352;2023-02-28T03:01:07;20.30;;;13.33;;
66628;SDS011;53532;53.084;6.352;2023-02-28T03:03:34;22.70;;;13.83;;
66628;SDS011;53532;53.084;6.352;2023-02-28T03:06:01;21.20;;;14.87;;
66628;SDS011;53532;53.084;6.352;2023-02-28T03:08:28;28.83;;;17.33;;
66628;SDS011;53532;53.084;6.352;2023-02-28T03:10:57;24.33;;;16.23;;
66628;SDS011;53532;53.084;6.352;2023-02-28T03:13:31;26.77;;;18.70;;
66628;SDS011;53532;53.084;6.352;2023-02-28T03:16:03;20.13;;;15.60;;
66628;SDS011;53532;53.084;6.352;2023-02-28T03:18:32;28.27;;;17.13;;
66628;SDS011;53532;53.084;6.352;2023-02-28T03:21:04;22.58;;;15.25;;
66628;SDS011;53532;53.084;6.352;2023-02-28T03:23:35;29.70;;;18.63;;
66628;SDS011;53532;53.084;6.352;2023-02-28T03:26:06;28.98;;;18.90;;
66628;SDS011;53532;53.084;6.352;2023-02-28T03:28:40;27.40;;;19.33;;
66628;SDS011;53532;53.084;6.352;2023-02-28T03:31:10;32.37;;;21.70;;
66628;SDS011;53532;53.084;6.352;2023-02-28T03:33:42;31.77;;;21.70;;
66628;SDS011;53532;53.084;6.352;2023-02-28T03:36:10;28.00;;;19.75;;
66628;SDS011;53532;53.084;6.352;2023-02-28T03:38:38;31.37;;;21.67;;
66628;SDS011;53532;53.084;6.352;2023-02-28T03:41:09;33.50;;;21.73;;
66628;SDS011;53532;53.084;6.352;2023-02-28T03:43:39;34.40;;;20.75;;
66628;SDS011;53532;53.084;6.352;2023-02-28T03:46:08;35.22;;;20.75;;
66628;SDS011;53532;53.084;6.352;2023-02-28T03:48:37;29.50;;;18.97;;
66628;SDS011;53532;53.084;6.352;2023-02-28T03:51:05;30.00;;;18.03;;
66628;SDS011;53532;53.084;6.352;2023-02-28T03:53:34;33.67;;;17.90;;
66628;SDS011;53532;53.084;6.352;2023-02-28T03:56:01;28.80;;;17.00;;
66628;SDS011;53532;53.084;6.352;2023-02-28T03:58:31;27.57;;;16.50;;
66628;SDS011;53532;53.084;6.352;2023-02-28T04:01:00;28.47;;;15.30;;
66628;SDS011;53532;53.084;6.352;2023-02-28T04:03:34;28.63;;;15.50;;
66628;SDS011;53532;53.084;6.352;2023-02-28T04:06:00;29.40;;;16.10;;
66628;SDS011;53532;53.084;6.352;2023-02-28T04:08:26;24.10;;;15.30;;
66628;SDS011;53532;53.084;6.352;2023-02-28T04:10:54;29.53;;;15.87;;
66628;SDS011;53532;53.084;6.352;2023-02-28T04:13:22;28.90;;;15.83;;
66628;SDS011;53532;53.084;6.352;2023-02-28T04:15:49;25.03;;;15.30;;
66628;SDS011;53532;53.084;6.352;2023-02-28T04:18:15;22.37;;;13.80;;
66628;SDS011;53532;53.084;6.352;2023-02-28T04:20:41;21.50;;;13.43;;
66628;SDS011;53532;53.084;6.352;2023-02-28T04:23:08;21.33;;;12.90;;
66628;SDS011;53532;53.084;6.352;2023-02-28T04:25:34;23.73;;;13.43;;
66628;SDS011;53532;53.084;6.352;2023-02-28T04:28:00;24.07;;;12.93;;
66628;SDS011;53532;53.084;6.352;2023-02-28T04:30:26;23.73;;;12.67;;
66628;SDS011;53532;53.084;6.352;2023-02-28T04:32:53;22.00;;;12.43;;
66628;SDS011;53532;53.084;6.352;2023-02-28T04:35:20;24.93;;;12.40;;
66628;SDS011;53532;53.084;6.352;2023-02-28T04:37:46;24.10;;;12.90;;
66628;SDS011;53532;53.084;6.352;2023-02-28T04:40:12;22.77;;;11.93;;
66628;SDS011;53532;53.084;6.352;2023-02-28T04:42:38;22.83;;;12.97;;
66628;SDS011;53532;53.084;6.352;2023-02-28T04:45:05;23.57;;;12.30;;
66628;SDS011;53532;53.084;6.352;2023-02-28T04:47:31;23.70;;;12.97;;
66628;SDS011;53532;53.084;6.352;2023-02-28T04:49:59;25.63;;;12.63;;
66628;SDS011;53532;53.084;6.352;2023-02-28T04:52:25;25.30;;;12.97;;
66628;SDS011;53532;53.084;6.352;2023-02-28T04:54:52;20.33;;;12.40;;
66628;SDS011;53532;53.084;6.352;2023-02-28T04:57:19;22.87;;;12.63;;
66628;SDS011;53532;53.084;6.352;2023-02-28T04:59:45;21.37;;;12.53;;
66628;SDS011;53532;53.084;6.352;2023-02-28T05:02:11;26.43;;;13.00;;
66628;SDS011;53532;53.084;6.352;2023-02-28T05:04:37;25.97;;;13.23;;
66628;SDS011;53532;53.084;6.352;2023-02-28T05:07:05;23.27;;;12.77;;
66628;SDS011;53532;53.084;6.352;2023-02-28T05:09:31;24.03;;;13.30;;
66628;SDS011;53532;53.084;6.352;2023-02-28T05:11:58;31.10;;;14.03;;
66628;SDS011;53532;53.084;6.352;2023-02-28T05:14:24;23.30;;;13.53;;
66628;SDS011;53532;53.084;6.352;2023-02-28T05:16:50;23.63;;;13.30;;
66628;SDS011;53532;53.084;6.352;2023-02-28T05:19:16;26.93;;;14.10;;
66628;SDS011;53532;53.084;6.352;2023-02-28T05:21:48;32.00;;;15.43;;
66628;SDS011;53532;53.084;6.352;2023-02-28T05:24:16;29.33;;;14.30;;
66628;SDS011;53532;53.084;6.352;2023-02-28T05:26:48;26.10;;;14.23;;
66628;SDS011;53532;53.084;6.352;2023-02-28T05:29:15;26.83;;;15.17;;
66628;SDS011;53532;53.084;6.352;2023-02-28T05:31:41;31.87;;;16.20;;
66628;SDS011;53532;53.084;6.352;2023-02-28T05:34:07;33.40;;;17.43;;
66628;SDS011;53532;53.084;6.352;2023-02-28T05:36:36;35.33;;;17.63;;
66628;SDS011;53532;53.084;6.352;2023-02-28T05:39:02;33.63;;;17.40;;
66628;SDS011;53532;53.084;6.352;2023-02-28T05:41:30;36.60;;;18.47;;
66628;SDS011;53532;53.084;6.352;2023-02-28T05:43:56;32.87;;;17.13;;
66628;SDS011;53532;53.084;6.352;2023-02-28T05:46:23;28.90;;;16.47;;
66628;SDS011;53532;53.084;6.352;2023-02-28T05:48:49;25.63;;;15.63;;
66628;SDS011;53532;53.084;6.352;2023-02-28T05:51:15;25.73;;;16.03;;
66628;SDS011;53532;53.084;6.352;2023-02-28T05:53:42;25.83;;;16.07;;
66628;SDS011;53532;53.084;6.352;2023-02-28T05:56:08;28.07;;;15.47;;
66628;SDS011;53532;53.084;6.352;2023-02-28T05:58:36;26.93;;;16.30;;
66628;SDS011;53532;53.084;6.352;2023-02-28T06:03:43;32.65;;;19.10;;
66628;SDS011;53532;53.084;6.352;2023-02-28T06:06:09;32.13;;;19.13;;
66628;SDS011;53532;53.084;6.352;2023-02-28T06:08:35;31.63;;;19.23;;
66628;SDS011;53532;53.084;6.352;2023-02-28T06:11:02;31.97;;;18.53;;
66628;SDS011;53532;53.084;6.352;2023-02-28T06:13:28;33.53;;;19.23;;
66628;SDS011;53532;53.084;6.352;2023-02-28T06:15:56;31.53;;;18.77;;
66628;SDS011;53532;53.084;6.352;2023-02-28T06:18:22;31.57;;;19.03;;
66628;SDS011;53532;53.084;6.352;2023-02-28T06:20:51;34.37;;;19.07;;
66628;SDS011;53532;53.084;6.352;2023-02-28T06:23:19;32.63;;;19.20;;
66628;SDS011;53532;53.084;6.352;2023-02-28T06:25:45;30.47;;;18.47;;
66628;SDS011;53532;53.084;6.352;2023-02-28T06:28:12;31.30;;;18.80;;
66628;SDS011;53532;53.084;6.352;2023-02-28T06:30:38;32.10;;;18.53;;
66628;SDS011;53532;53.084;6.352;2023-02-28T06:33:05;29.87;;;18.87;;
66628;SDS011;53532;53.084;6.352;2023-02-28T06:35:31;30.83;;;19.33;;
66628;SDS011;53532;53.084;6.352;2023-02-28T06:37:58;34.63;;;19.60;;
66628;SDS011;53532;53.084;6.352;2023-02-28T06:40:24;30.63;;;19.07;;
66628;SDS011;53532;53.084;6.352;2023-02-28T06:42:50;35.40;;;20.20;;
66628;SDS011;53532;53.084;6.352;2023-02-28T06:45:16;34.80;;;20.27;;
66628;SDS011;53532;53.084;6.352;2023-02-28T06:47:42;38.47;;;20.40;;
66628;SDS011;53532;53.084;6.352;2023-02-28T06:50:11;32.90;;;19.47;;
66628;SDS011;53532;53.084;6.352;2023-02-28T06:52:38;30.53;;;19.77;;
66628;SDS011;53532;53.084;6.352;2023-02-28T06:55:04;34.73;;;19.97;;
66628;SDS011;53532;53.084;6.352;2023-02-28T06:57:31;35.50;;;20.13;;
66628;SDS011;53532;53.084;6.352;2023-02-28T06:59:58;36.17;;;20.57;;
66628;SDS011;53532;53.084;6.352;2023-02-28T07:02:24;36.47;;;20.77;;
66628;SDS011;53532;53.084;6.352;2023-02-28T07:04:51;36.67;;;20.47;;
66628;SDS011;53532;53.084;6.352;2023-02-28T07:07:18;34.60;;;20.00;;
66628;SDS011;53532;53.084;6.352;2023-02-28T07:09:44;32.20;;;19.27;;
66628;SDS011;53532;53.084;6.352;2023-02-28T07:12:10;32.33;;;19.87;;
66628;SDS011;53532;53.084;6.352;2023-02-28T07:14:37;34.80;;;21.43;;
66628;SDS011;53532;53.084;6.352;2023-02-28T07:17:03;30.20;;;19.50;;
66628;SDS011;53532;53.084;6.352;2023-02-28T07:19:29;28.70;;;18.60;;
66628;SDS011;53532;53.084;6.352;2023-02-28T07:21:55;29.50;;;18.87;;
66628;SDS011;53532;53.084;6.352;2023-02-28T07:24:23;31.33;;;19.27;;
66628;SDS011;53532;53.084;6.352;2023-02-28T07:26:53;29.13;;;18.52;;
66628;SDS011;53532;53.084;6.352;2023-02-28T07:29:19;29.50;;;18.70;;
66628;SDS011;53532;53.084;6.352;2023-02-28T07:31:45;35.17;;;20.10;;
66628;SDS011;53532;53.084;6.352;2023-02-28T07:34:11;30.87;;;19.27;;
66628;SDS011;53532;53.084;6.352;2023-02-28T07:36:37;31.57;;;20.57;;
66628;SDS011;53532;53.084;6.352;2023-02-28T07:39:03;32.17;;;20.17;;
66628;SDS011;53532;53.084;6.352;2023-02-28T07:41:31;28.67;;;18.77;;
66628;SDS011;53532;53.084;6.352;2023-02-28T07:43:59;28.27;;;18.63;;
66628;SDS011;53532;53.084;6.352;2023-02-28T07:46:25;31.23;;;20.20;;
66628;SDS011;53532;53.084;6.352;2023-02-28T07:48:52;31.30;;;20.03;;
66628;SDS011;53532;53.084;6.352;2023-02-28T07:51:19;32.73;;;19.50;;
66628;SDS011;53532;53.084;6.352;2023-02-28T07:53:45;31.63;;;19.33;;
66628;SDS011;53532;53.084;6.352;2023-02-28T07:56:12;30.70;;;19.30;;
66628;SDS011;53532;53.084;6.352;2023-02-28T07:58:39;30.53;;;19.83;;
66628;SDS011;53532;53.084;6.352;2023-02-28T08:01:06;28.33;;;19.23;;
66628;SDS011;53532;53.084;6.352;2023-02-28T08:03:33;30.47;;;19.30;;
66628;SDS011;53532;53.084;6.352;2023-02-28T08:05:59;30.13;;;18.87;;
66628;SDS011;53532;53.084;6.352;2023-02-28T08:08:27;25.93;;;18.07;;
66628;SDS011;53532;53.084;6.352;2023-02-28T08:10:57;27.50;;;18.90;;
66628;SDS011;53532;53.084;6.352;2023-02-28T08:13:24;26.57;;;18.70;;
66628;SDS011;53532;53.084;6.352;2023-02-28T08:15:53;25.70;;;17.70;;
66628;SDS011;53532;53.084;6.352;2023-02-28T08:18:19;26.93;;;19.50;;
66628;SDS011;53532;53.084;6.352;2023-02-28T08:20:46;27.70;;;18.90;;
66628;SDS011;53532;53.084;6.352;2023-02-28T08:23:12;26.77;;;19.63;;
66628;SDS011;53532;53.084;6.352;2023-02-28T08:25:38;25.50;;;18.20;;
66628;SDS011;53532;53.084;6.352;2023-02-28T08:28:05;26.20;;;18.70;;
66628;SDS011;53532;53.084;6.352;2023-02-28T08:30:31;25.67;;;18.70;;
66628;SDS011;53532;53.084;6.352;2023-02-28T08:32:58;23.03;;;16.63;;
66628;SDS011;53532;53.084;6.352;2023-02-28T08:35:25;23.00;;;16.87;;
66628;SDS011;53532;53.084;6.352;2023-02-28T08:37:51;24.97;;;16.90;;
66628;SDS011;53532;53.084;6.352;2023-02-28T08:40:17;26.97;;;18.00;;
66628;SDS011;53532;53.084;6.352;2023-02-28T08:42:43;26.13;;;17.58;;
66628;SDS011;53532;53.084;6.352;2023-02-28T08:45:10;26.77;;;18.53;;
66628;SDS011;53532;53.084;6.352;2023-02-28T08:47:36;25.07;;;17.53;;
66628;SDS011;53532;53.084;6.352;2023-02-28T08:50:04;21.93;;;15.93;;
66628;SDS011;53532;53.084;6.352;2023-02-28T08:52:31;22.60;;;16.63;;
66628;SDS011;53532;53.084;6.352;2023-02-28T08:54:57;22.50;;;16.60;;
66628;SDS011;53532;53.084;6.352;2023-02-28T08:57:24;22.17;;;16.43;;
66628;SDS011;53532;53.084;6.352;2023-02-28T08:59:52;21.87;;;16.07;;
66628;SDS011;53532;53.084;6.352;2023-02-28T09:02:19;21.60;;;15.63;;
66628;SDS011;53532;53.084;6.352;2023-02-28T09:04:45;18.90;;;15.38;;
66628;SDS011;53532;53.084;6.352;2023-02-28T09:07:12;21.80;;;15.93;;
66628;SDS011;53532;53.084;6.352;2023-02-28T09:09:39;20.27;;;16.00;;
66628;SDS011;53532;53.084;6.352;2023-02-28T09:12:18;20.85;;;15.68;;
66628;SDS011;53532;53.084;6.352;2023-02-28T09:14:45;19.27;;;15.05;;
66628;SDS011;53532;53.084;6.352;2023-02-28T09:17:11;21.35;;;15.63;;
66628;SDS011;53532;53.084;6.352;2023-02-28T09:19:37;23.48;;;16.58;;
66628;SDS011;53532;53.084;6.352;2023-02-28T09:22:03;21.27;;;15.50;;
66628;SDS011;53532;53.084;6.352;2023-02-28T09:24:31;27.02;;;16.88;;
66628;SDS011;53532;53.084;6.352;2023-02-28T09:26:57;21.50;;;15.35;;
66628;SDS011;53532;53.084;6.352;2023-02-28T09:29:23;20.58;;;14.98;;
66628;SDS011;53532;53.084;6.352;2023-02-28T09:31:49;21.52;;;15.98;;
66628;SDS011;53532;53.084;6.352;2023-02-28T09:34:15;20.00;;;15.52;;
66628;SDS011;53532;53.084;6.352;2023-02-28T09:36:42;19.48;;;14.73;;
66628;SDS011;53532;53.084;6.352;2023-02-28T09:39:08;19.10;;;14.68;;
66628;SDS011;53532;53.084;6.352;2023-02-28T09:41:38;17.17;;;13.80;;
66628;SDS011;53532;53.084;6.352;2023-02-28T09:44:13;18.63;;;14.93;;
66628;SDS011;53532;53.084;6.352;2023-02-28T09:46:42;18.95;;;14.93;;
66628;SDS011;53532;53.084;6.352;2023-02-28T09:49:11;19.17;;;14.27;;
66628;SDS011;53532;53.084;6.352;2023-02-28T09:51:44;18.38;;;14.18;;
66628;SDS011;53532;53.084;6.352;2023-02-28T09:54:14;16.88;;;13.20;;
66628;SDS011;53532;53.084;6.352;2023-02-28T09:56:45;16.83;;;13.30;;
66628;SDS011;53532;53.084;6.352;2023-02-28T09:59:14;16.42;;;12.85;;
66628;SDS011;53532;53.084;6.352;2023-02-28T10:01:45;16.90;;;12.95;;
66628;SDS011;53532;53.084;6.352;2023-02-28T10:04:16;15.27;;;12.00;;
66628;SDS011;53532;53.084;6.352;2023-02-28T10:06:44;18.50;;;13.55;;
66628;SDS011;53532;53.084;6.352;2023-02-28T10:09:11;16.77;;;13.02;;
66628;SDS011;53532;53.084;6.352;2023-02-28T10:11:39;16.77;;;12.65;;
66628;SDS011;53532;53.084;6.352;2023-02-28T10:14:10;13.85;;;11.38;;
66628;SDS011;53532;53.084;6.352;2023-02-28T10:16:40;15.82;;;12.40;;
66628;SDS011;53532;53.084;6.352;2023-02-28T10:19:12;15.65;;;13.07;;
66628;SDS011;53532;53.084;6.352;2023-02-28T10:21:41;16.70;;;12.00;;
66628;SDS011;53532;53.084;6.352;2023-02-28T10:24:13;16.63;;;12.32;;
66628;SDS011;53532;53.084;6.352;2023-02-28T10:26:42;14.52;;;11.55;;
66628;SDS011;53532;53.084;6.352;2023-02-28T10:29:11;15.88;;;10.95;;
66628;SDS011;53532;53.084;6.352;2023-02-28T10:31:37;17.63;;;11.15;;
66628;SDS011;53532;53.084;6.352;2023-02-28T10:34:04;15.90;;;10.98;;
66628;SDS011;53532;53.084;6.352;2023-02-28T10:36:31;12.80;;;9.18;;
66628;SDS011;53532;53.084;6.352;2023-02-28T10:38:57;11.90;;;8.48;;
66628;SDS011;53532;53.084;6.352;2023-02-28T10:41:28;13.65;;;9.65;;
66628;SDS011;53532;53.084;6.352;2023-02-28T10:46:54;12.32;;;8.27;;
66628;SDS011;53532;53.084;6.352;2023-02-28T10:49:22;11.25;;;7.78;;
66628;SDS011;53532;53.084;6.352;2023-02-28T10:51:48;9.02;;;5.32;;
66628;SDS011;53532;53.084;6.352;2023-02-28T10:54:15;9.23;;;5.15;;
66628;SDS011;53532;53.084;6.352;2023-02-28T10:56:42;8.77;;;5.63;;
66628;SDS011;53532;53.084;6.352;2023-02-28T10:59:22;8.65;;;5.25;;
66628;SDS011;53532;53.084;6.352;2023-02-28T11:01:50;9.35;;;5.03;;
66628;SDS011;53532;53.084;6.352;2023-02-28T11:04:20;8.48;;;4.32;;
66628;SDS011;53532;53.084;6.352;2023-02-28T11:06:46;12.98;;;4.50;;
66628;SDS011;53532;53.084;6.352;2023-02-28T11:09:20;10.82;;;5.13;;
66628;SDS011;53532;53.084;6.352;2023-02-28T11:11:49;8.38;;;4.70;;
66628;SDS011;53532;53.084;6.352;2023-02-28T11:14:17;10.38;;;4.90;;
66628;SDS011;53532;53.084;6.352;2023-02-28T11:16:45;7.68;;;4.88;;
66628;SDS011;53532;53.084;6.352;2023-02-28T11:19:16;8.50;;;5.00;;
66628;SDS011;53532;53.084;6.352;2023-02-28T11:21:47;9.10;;;5.38;;
66628;SDS011;53532;53.084;6.352;2023-02-28T11:24:15;8.68;;;5.18;;
66628;SDS011;53532;53.084;6.352;2023-02-28T11:26:43;7.53;;;4.78;;
66628;SDS011;53532;53.084;6.352;2023-02-28T11:29:16;8.50;;;5.10;;
66628;SDS011;53532;53.084;6.352;2023-02-28T11:31:45;7.93;;;4.65;;
66628;SDS011;53532;53.084;6.352;2023-02-28T11:34:26;8.52;;;5.05;;
66628;SDS011;53532;53.084;6.352;2023-02-28T11:36:54;8.35;;;5.07;;
66628;SDS011;53532;53.084;6.352;2023-02-28T11:39:22;9.13;;;5.10;;
66628;SDS011;53532;53.084;6.352;2023-02-28T11:41:55;8.40;;;5.18;;
66628;SDS011;53532;53.084;6.352;2023-02-28T11:44:29;7.80;;;5.03;;
66628;SDS011;53532;53.084;6.352;2023-02-28T11:46:58;8.07;;;5.28;;
66628;SDS011;53532;53.084;6.352;2023-02-28T11:49:30;8.27;;;5.35;;
66628;SDS011;53532;53.084;6.352;2023-02-28T11:51:59;9.00;;;5.80;;
66628;SDS011;53532;53.084;6.352;2023-02-28T11:54:46;9.52;;;5.80;;
66628;SDS011;53532;53.084;6.352;2023-02-28T11:57:20;9.02;;;5.97;;
66628;SDS011;53532;53.084;6.352;2023-02-28T11:59:53;7.57;;;4.90;;
66628;SDS011;53532;53.084;6.352;2023-02-28T12:02:27;8.38;;;5.05;;
66628;SDS011;53532;53.084;6.352;2023-02-28T12:05:01;7.68;;;4.85;;
66628;SDS011;53532;53.084;6.352;2023-02-28T12:07:34;9.13;;;5.22;;
66628;SDS011;53532;53.084;6.352;2023-02-28T12:10:05;7.75;;;5.00;;
66628;SDS011;53532;53.084;6.352;2023-02-28T12:12:38;8.65;;;5.32;;
66628;SDS011;53532;53.084;6.352;2023-02-28T12:15:18;8.35;;;5.32;;
66628;SDS011;53532;53.084;6.352;2023-02-28T12:17:50;9.40;;;5.10;;
66628;SDS011;53532;53.084;6.352;2023-02-28T12:20:20;8.15;;;5.05;;
66628;SDS011;53532;53.084;6.352;2023-02-28T12:22:52;9.02;;;4.75;;
66628;SDS011;53532;53.084;6.352;2023-02-28T12:25:22;8.13;;;5.53;;
66628;SDS011;53532;53.084;6.352;2023-02-28T12:27:50;8.85;;;5.50;;
66628;SDS011;53532;53.084;6.352;2023-02-28T12:30:19;8.80;;;5.38;;
66628;SDS011;53532;53.084;6.352;2023-02-28T12:32:48;8.27;;;5.50;;
66628;SDS011;53532;53.084;6.352;2023-02-28T12:35:16;9.65;;;5.30;;
66628;SDS011;53532;53.084;6.352;2023-02-28T12:37:45;8.88;;;5.53;;
66628;SDS011;53532;53.084;6.352;2023-02-28T12:40:16;10.25;;;5.50;;
66628;SDS011;53532;53.084;6.352;2023-02-28T12:42:44;8.77;;;5.72;;
66628;SDS011;53532;53.084;6.352;2023-02-28T12:45:12;8.88;;;5.78;;
66628;SDS011;53532;53.084;6.352;2023-02-28T12:47:42;9.38;;;5.65;;
66628;SDS011;53532;53.084;6.352;2023-02-28T12:50:10;10.15;;;6.32;;
66628;SDS011;53532;53.084;6.352;2023-02-28T12:52:39;9.77;;;6.38;;
66628;SDS011;53532;53.084;6.352;2023-02-28T12:55:06;9.15;;;6.13;;
66628;SDS011;53532;53.084;6.352;2023-02-28T12:57:38;8.75;;;6.38;;
66628;SDS011;53532;53.084;6.352;2023-02-28T13:00:10;8.15;;;6.00;;
66628;SDS011;53532;53.084;6.352;2023-02-28T13:08:08;9.52;;;6.65;;
66628;SDS011;53532;53.084;6.352;2023-02-28T13:10:40;11.38;;;6.60;;
66628;SDS011;53532;53.084;6.352;2023-02-28T13:13:11;10.02;;;6.95;;
66628;SDS011;53532;53.084;6.352;2023-02-28T13:18:20;10.55;;;6.60;;
66628;SDS011;53532;53.084;6.352;2023-02-28T13:20:53;9.10;;;6.80;;
66628;SDS011;53532;53.084;6.352;2023-02-28T13:23:40;11.88;;;7.53;;
66628;SDS011;53532;53.084;6.352;2023-02-28T13:26:06;8.90;;;6.90;;
66628;SDS011;53532;53.084;6.352;2023-02-28T13:34:16;9.85;;;7.43;;
66628;SDS011;53532;53.084;6.352;2023-02-28T13:36:42;9.57;;;7.10;;
66628;SDS011;53532;53.084;6.352;2023-02-28T13:41:53;9.93;;;7.20;;
66628;SDS011;53532;53.084;6.352;2023-02-28T13:44:19;10.82;;;7.05;;
66628;SDS011;53532;53.084;6.352;2023-02-28T13:49:35;11.07;;;6.70;;
66628;SDS011;53532;53.084;6.352;2023-02-28T13:52:02;10.15;;;6.93;;
66628;SDS011;53532;53.084;6.352;2023-02-28T13:54:43;9.65;;;6.45;;
66628;SDS011;53532;53.084;6.352;2023-02-28T13:57:17;9.50;;;6.15;;
66628;SDS011;53532;53.084;6.352;2023-02-28T13:59:48;9.75;;;6.20;;
66628;SDS011;53532;53.084;6.352;2023-02-28T14:02:23;9.80;;;6.55;;
66628;SDS011;53532;53.084;6.352;2023-02-28T14:04:59;9.32;;;7.07;;
66628;SDS011;53532;53.084;6.352;2023-02-28T14:07:26;9.88;;;6.68;;
66628;SDS011;53532;53.084;6.352;2023-02-28T14:09:57;10.48;;;6.70;;
66628;SDS011;53532;53.084;6.352;2023-02-28T14:15:25;10.48;;;7.22;;
66628;SDS011;53532;53.084;6.352;2023-02-28T14:17:55;13.90;;;8.00;;
66628;SDS011;53532;53.084;6.352;2023-02-28T14:20:26;10.90;;;7.63;;
66628;SDS011;53532;53.084;6.352;2023-02-28T14:22:56;10.80;;;7.40;;
66628;SDS011;53532;53.084;6.352;2023-02-28T14:25:26;11.18;;;8.20;;
66628;SDS011;53532;53.084;6.352;2023-02-28T14:27:58;12.55;;;8.82;;
66628;SDS011;53532;53.084;6.352;2023-02-28T14:33:18;13.40;;;8.90;;
66628;SDS011;53532;53.084;6.352;2023-02-28T14:35:53;11.63;;;8.88;;
66628;SDS011;53532;53.084;6.352;2023-02-28T14:38:22;12.07;;;8.88;;
66628;SDS011;53532;53.084;6.352;2023-02-28T14:40:49;10.90;;;7.53;;
66628;SDS011;53532;53.084;6.352;2023-02-28T14:43:20;11.10;;;8.50;;
66628;SDS011;53532;53.084;6.352;2023-02-28T14:45:49;11.57;;;8.00;;
66628;SDS011;53532;53.084;6.352;2023-02-28T14:48:16;10.25;;;8.02;;
66628;SDS011;53532;53.084;6.352;2023-02-28T14:50:47;12.07;;;8.00;;
66628;SDS011;53532;53.084;6.352;2023-02-28T14:53:17;11.45;;;8.10;;
66628;SDS011;53532;53.084;6.352;2023-02-28T14:55:44;10.40;;;7.43;;
66628;SDS011;53532;53.084;6.352;2023-02-28T14:58:20;10.32;;;7.55;;
66628;SDS011;53532;53.084;6.352;2023-02-28T15:00:47;11.18;;;7.65;;
66628;SDS011;53532;53.084;6.352;2023-02-28T15:03:17;11.07;;;7.80;;
66628;SDS011;53532;53.084;6.352;2023-02-28T15:05:47;11.35;;;7.47;;
66628;SDS011;53532;53.084;6.352;2023-02-28T15:08:18;11.63;;;7.90;;
66628;SDS011;53532;53.084;6.352;2023-02-28T15:10:45;10.65;;;8.20;;